Time;durP1;ratioP1;P1;durP2;ratioP2;P2;SDS_P1;SDS_P2;PMS_P1;PMS_P2;Temp;Humidity;BMP_temperature;BMP_pressure;BME280_temperature;BME280_humidity;BME280_pressure;Samples;Min_cycle;Max_cycle;Signal;HPM_P1;HPM_P2
2022/01/10 00:02:09;;;;;;;;;;;4.50;97.90;;;;;;5048161;28;20357;-69
2022/01/10 00:04:34;;;;;;;;;;;4.50;98.00;;;;;;5056548;28;20320;-69
2022/01/10 00:07:00;;;;;;;;;;;4.50;97.90;;;;;;5048849;28;19917;-69
2022/01/10 00:09:25;;;;;;;;;;;4.50;98.00;;;;;;5050469;28;19970;-69
2022/01/10 00:11:51;;;;;;;;;;;4.50;97.90;;;;;;5046599;28;19917;-69
2022/01/10 00:14:16;;;;;;;;;;;4.50;98.00;;;;;;5050006;28;19952;-69
2022/01/10 00:16:42;;;;;;;;;;;4.50;98.00;;;;;;5047650;28;20413;-69
2022/01/10 00:19:07;;;;;;;;;;;4.50;98.00;;;;;;5048448;28;19942;-69
2022/01/10 00:21:33;;;;;;;;;;;4.50;98.00;;;;;;5052543;28;19916;-69
2022/01/10 00:23:59;;;;;;;;;;;4.50;97.90;;;;;;5048106;28;19966;-69
2022/01/10 00:26:24;;;;;;;;;;;4.50;98.00;;;;;;5030435;28;20443;-69
2022/01/10 00:28:50;;;;;;;;;;;4.40;98.00;;;;;;5046577;28;20015;-69
2022/01/10 00:31:16;;;;;;;;;;;4.40;98.00;;;;;;5050836;28;19916;-69
2022/01/10 00:33:41;;;;;;;;;;;4.40;98.00;;;;;;5047586;28;20401;-69
2022/01/10 00:36:08;;;;;;;;;;;4.40;98.00;;;;;;5050031;28;19916;-69
2022/01/10 00:38:33;;;;;;;;;;;4.40;98.00;;;;;;5047185;28;19924;-69
2022/01/10 00:41:00;;;;;;;;;;;4.40;98.00;;;;;;5047986;28;19931;-69
2022/01/10 00:43:31;;;;;;;;;;;4.40;98.00;;;;;;5048066;28;19923;-69
2022/01/10 00:45:57;;;;;;;;;;;4.40;98.00;;;;;;5049002;28;19921;-69
2022/01/10 00:48:23;;;;;;;;;;;4.40;98.00;;;;;;5047125;28;19917;-69
2022/01/10 00:50:48;;;;;;;;;;;4.50;97.90;;;;;;5049552;28;19917;-69
2022/01/10 00:53:14;;;;;;;;;;;4.50;97.90;;;;;;5047437;28;19913;-69
2022/01/10 00:55:39;;;;;;;;;;;4.50;97.90;;;;;;5048546;28;19925;-69
2022/01/10 00:58:05;;;;;;;;;;;4.50;97.90;;;;;;5033130;28;20354;-69
2022/01/10 01:00:30;;;;;;;;;;;4.40;98.10;;;;;;5063437;28;19913;-69
2022/01/10 01:02:58;;;;;;;;;;;4.40;97.80;;;;;;5049743;28;20417;-69
2022/01/10 01:05:24;;;;;;;;;;;4.40;97.80;;;;;;5059367;28;19928;-69
2022/01/10 01:07:50;;;;;;;;;;;4.40;97.80;;;;;;5046390;28;19921;-69
2022/01/10 01:15:20;;;;;;;;;;;4.40;97.70;;;;;;5046640;28;19917;-69
2022/01/10 01:17:58;;;;;;;;;;;4.40;97.70;;;;;;5049697;28;20038;-69
2022/01/10 01:20:31;;;;;;;;;;;4.40;97.70;;;;;;5047813;28;19928;-69
2022/01/10 01:25:40;;;;;;;;;;;4.30;97.60;;;;;;5047219;28;20469;-69
2022/01/10 01:28:06;;;;;;;;;;;4.30;97.60;;;;;;5048397;28;19921;-69
2022/01/10 01:30:31;;;;;;;;;;;4.30;97.60;;;;;;5047116;28;19975;-69
2022/01/10 01:32:58;;;;;;;;;;;4.30;97.60;;;;;;5063757;28;19944;-69
2022/01/10 01:35:25;;;;;;;;;;;4.30;97.60;;;;;;5052105;28;19976;-69
2022/01/10 01:37:51;;;;;;;;;;;4.30;97.60;;;;;;5046565;28;19924;-69
2022/01/10 01:40:18;;;;;;;;;;;4.30;97.60;;;;;;5046494;28;19916;-69
2022/01/10 01:42:44;;;;;;;;;;;4.20;97.60;;;;;;5048279;28;19970;-69
2022/01/10 01:45:12;;;;;;;;;;;4.30;97.50;;;;;;5047212;28;19913;-69
2022/01/10 01:47:37;;;;;;;;;;;4.20;97.50;;;;;;5045696;28;19995;-69
2022/01/10 01:50:04;;;;;;;;;;;4.20;97.50;;;;;;5049897;28;20000;-69
2022/01/10 01:52:30;;;;;;;;;;;4.20;97.80;;;;;;5044791;28;19917;-69
2022/01/10 01:54:55;;;;;;;;;;;4.20;97.50;;;;;;5051966;28;19936;-69
2022/01/10 01:57:21;;;;;;;;;;;4.20;97.50;;;;;;5050181;28;19921;-69
2022/01/10 01:59:46;;;;;;;;;;;4.10;97.40;;;;;;5051356;28;19917;-69
2022/01/10 02:02:12;;;;;;;;;;;4.10;97.40;;;;;;5049880;28;19943;-69
2022/01/10 02:04:37;;;;;;;;;;;4.10;97.40;;;;;;5051636;28;19994;-69
2022/01/10 02:07:03;;;;;;;;;;;4.10;97.40;;;;;;5050503;28;19917;-69
2022/01/10 02:09:30;;;;;;;;;;;4.10;97.40;;;;;;5035765;28;20370;-69
2022/01/10 02:11:56;;;;;;;;;;;4.10;97.40;;;;;;5049292;28;19913;-69
2022/01/10 02:14:22;;;;;;;;;;;4.10;97.40;;;;;;5052794;28;19923;-69
2022/01/10 02:16:54;;;;;;;;;;;4.00;97.40;;;;;;5050868;28;19917;-69
2022/01/10 02:19:20;;;;;;;;;;;4.00;97.30;;;;;;5050470;28;19924;-69
2022/01/10 02:21:45;;;;;;;;;;;4.00;97.30;;;;;;5053432;28;19912;-69
2022/01/10 02:24:11;;;;;;;;;;;4.00;97.30;;;;;;5051983;28;20003;-69
2022/01/10 02:26:37;;;;;;;;;;;4.00;97.30;;;;;;5052873;28;19916;-69
2022/01/10 02:29:03;;;;;;;;;;;4.00;97.30;;;;;;5048318;28;20378;-70
2022/01/10 02:31:29;;;;;;;;;;;4.00;97.30;;;;;;5053682;28;20419;-69
2022/01/10 02:33:57;;;;;;;;;;;4.00;97.30;;;;;;5048566;28;20004;-69
2022/01/10 02:36:27;;;;;;;;;;;4.00;97.30;;;;;;5052237;28;19916;-69
2022/01/10 02:38:52;;;;;;;;;;;4.00;97.30;;;;;;5045288;28;19936;-69
2022/01/10 02:41:22;;;;;;;;;;;3.90;97.20;;;;;;5052034;28;20290;-69
2022/01/10 02:43:47;;;;;;;;;;;4.00;97.30;;;;;;5051890;28;19920;-69
2022/01/10 02:46:13;;;;;;;;;;;4.00;97.20;;;;;;5033530;28;19924;-69
2022/01/10 02:48:39;;;;;;;;;;;3.90;97.20;;;;;;5048275;28;19913;-69
2022/01/10 02:51:05;;;;;;;;;;;3.90;97.20;;;;;;5051286;28;19916;-69
2022/01/10 02:53:30;;;;;;;;;;;3.90;97.20;;;;;;5046780;28;19920;-69
2022/01/10 02:55:56;;;;;;;;;;;3.90;97.10;;;;;;5049533;28;19920;-69
2022/01/10 02:58:22;;;;;;;;;;;3.90;97.40;;;;;;5046122;28;19988;-69
2022/01/10 03:00:47;;;;;;;;;;;3.90;97.20;;;;;;5052428;28;19931;-69
2022/01/10 03:03:13;;;;;;;;;;;3.90;97.20;;;;;;5049248;28;19916;-69
2022/01/10 03:05:38;;;;;;;;;;;3.90;97.20;;;;;;5033119;28;19909;-69
2022/01/10 03:08:04;;;;;;;;;;;3.80;97.10;;;;;;5060036;28;19916;-69
2022/01/10 03:10:30;;;;;;;;;;;3.90;97.10;;;;;;5048517;28;20412;-69
2022/01/10 03:12:56;;;;;;;;;;;3.80;97.10;;;;;;5051088;28;20476;-69
2022/01/10 03:15:22;;;;;;;;;;;3.80;97.10;;;;;;5047224;28;20374;-69
2022/01/10 03:17:47;;;;;;;;;;;3.80;97.10;;;;;;5051153;28;19925;-69
2022/01/10 03:20:13;;;;;;;;;;;3.80;97.10;;;;;;5047892;28;19917;-69
2022/01/10 03:22:38;;;;;;;;;;;3.80;97.10;;;;;;5050753;28;19948;-69
2022/01/10 03:25:04;;;;;;;;;;;3.80;97.10;;;;;;5034731;28;20349;-69
2022/01/10 03:27:29;;;;;;;;;;;3.80;97.10;;;;;;5050522;28;19909;-69
2022/01/10 03:29:55;;;;;;;;;;;3.80;97.00;;;;;;5051856;28;19948;-69
2022/01/10 03:32:21;;;;;;;;;;;3.80;97.00;;;;;;5051657;28;19913;-69
2022/01/10 03:34:46;;;;;;;;;;;3.80;97.00;;;;;;5047390;28;19925;-69
2022/01/10 03:37:12;;;;;;;;;;;3.80;97.00;;;;;;5052202;28;20471;-69
2022/01/10 03:39:37;;;;;;;;;;;3.70;97.00;;;;;;5048092;28;19917;-69
2022/01/10 03:42:03;;;;;;;;;;;3.70;97.00;;;;;;5033033;28;19917;-69
2022/01/10 03:44:29;;;;;;;;;;;3.70;97.00;;;;;;5052545;28;19945;-69
2022/01/10 03:46:56;;;;;;;;;;;3.70;97.00;;;;;;4983133;28;1845268;-69
2022/01/10 03:49:22;;;;;;;;;;;3.70;97.00;;;;;;5060987;28;20384;-69
2022/01/10 03:51:48;;;;;;;;;;;3.70;96.90;;;;;;5048999;28;19924;-69
2022/01/10 03:54:13;;;;;;;;;;;3.70;96.90;;;;;;5053594;28;19913;-69
2022/01/10 03:56:38;;;;;;;;;;;3.70;96.90;;;;;;5048014;28;19920;-69
2022/01/10 03:59:04;;;;;;;;;;;3.70;96.90;;;;;;5050963;28;19944;-69
2022/01/10 04:01:30;;;;;;;;;;;3.70;96.90;;;;;;5048502;28;19915;-69
2022/01/10 04:03:56;;;;;;;;;;;3.60;96.80;;;;;;5071683;28;19916;-69
2022/01/10 04:06:22;;;;;;;;;;;3.60;96.90;;;;;;5045276;28;20003;-69
2022/01/10 04:08:48;;;;;;;;;;;3.60;96.90;;;;;;5051778;28;20337;-69
2022/01/10 04:11:13;;;;;;;;;;;3.60;96.80;;;;;;5046627;28;19916;-69
2022/01/10 04:13:40;;;;;;;;;;;3.60;96.90;;;;;;5057219;28;20489;-69
2022/01/10 04:16:06;;;;;;;;;;;3.60;96.80;;;;;;5045680;28;19963;-69
2022/01/10 04:18:31;;;;;;;;;;;3.60;96.80;;;;;;5050971;28;20006;-69
2022/01/10 04:20:57;;;;;;;;;;;3.60;96.80;;;;;;5051980;28;19913;-69
2022/01/10 04:23:22;;;;;;;;;;;3.60;96.80;;;;;;5048109;28;20094;-69
2022/01/10 04:25:48;;;;;;;;;;;3.60;96.80;;;;;;5048577;28;19988;-69
2022/01/10 04:28:14;;;;;;;;;;;3.60;96.70;;;;;;5048308;28;20003;-69
2022/01/10 04:30:39;;;;;;;;;;;3.60;96.70;;;;;;5049283;28;19996;-69
2022/01/10 04:33:05;;;;;;;;;;;3.50;96.70;;;;;;5047852;28;19916;-69
2022/01/10 04:35:31;;;;;;;;;;;3.50;96.70;;;;;;5048888;28;19916;-69
2022/01/10 04:37:56;;;;;;;;;;;3.50;96.70;;;;;;5045904;28;19955;-69
2022/01/10 04:40:23;;;;;;;;;;;3.50;96.70;;;;;;5048854;28;19917;-69
2022/01/10 04:42:49;;;;;;;;;;;3.60;96.70;;;;;;5045912;28;19923;-69
2022/01/10 04:45:15;;;;;;;;;;;3.50;96.70;;;;;;5053995;28;19920;-69
2022/01/10 04:47:41;;;;;;;;;;;3.50;96.70;;;;;;5045522;28;19931;-69
2022/01/10 04:51:10;;;;;;;;;;;3.50;96.70;;;;;;5050730;28;19913;-69
2022/01/10 04:52:56;;;;;;;;;;;3.50;96.70;;;;;;5042879;28;19909;-69
2022/01/10 04:55:21;;;;;;;;;;;3.50;96.70;;;;;;5050015;28;19925;-69
2022/01/10 04:57:47;;;;;;;;;;;3.50;96.70;;;;;;5029160;28;19967;-69
2022/01/10 05:00:13;;;;;;;;;;;3.50;96.70;;;;;;5049182;28;19912;-69
2022/01/10 05:02:41;;;;;;;;;;;3.50;96.70;;;;;;5051414;28;19936;-69
2022/01/10 05:05:07;;;;;;;;;;;3.50;96.70;;;;;;5047452;28;20660;-69
2022/01/10 05:07:32;;;;;;;;;;;3.50;96.70;;;;;;5049095;28;19992;-69
2022/01/10 05:09:58;;;;;;;;;;;3.50;96.70;;;;;;5049108;28;19962;-69
2022/01/10 05:12:26;;;;;;;;;;;3.50;96.70;;;;;;5049837;28;19963;-69
2022/01/10 05:14:51;;;;;;;;;;;3.50;96.70;;;;;;5048849;28;19913;-69
2022/01/10 05:17:19;;;;;;;;;;;3.50;96.70;;;;;;5031092;28;19928;-69
2022/01/10 05:19:44;;;;;;;;;;;3.50;97.00;;;;;;5047693;28;19913;-69
2022/01/10 05:22:10;;;;;;;;;;;3.50;96.70;;;;;;5047788;28;20407;-69
2022/01/10 05:24:36;;;;;;;;;;;3.50;96.70;;;;;;5047479;28;19913;-69
2022/01/10 05:27:01;;;;;;;;;;;3.50;96.70;;;;;;5032433;28;19917;-69
2022/01/10 05:29:27;;;;;;;;;;;3.50;96.70;;;;;;5048520;28;20465;-69
2022/01/10 05:31:52;;;;;;;;;;;3.40;96.70;;;;;;5035866;28;19912;-69
2022/01/10 05:34:18;;;;;;;;;;;3.40;96.70;;;;;;5046766;28;19916;-69
2022/01/10 05:36:43;;;;;;;;;;;3.40;96.60;;;;;;5050019;28;19936;-69
2022/01/10 05:39:09;;;;;;;;;;;3.40;96.60;;;;;;5048943;28;19920;-69
2022/01/10 05:41:35;;;;;;;;;;;3.40;96.60;;;;;;5045793;28;19966;-69
2022/01/10 05:44:00;;;;;;;;;;;3.40;96.60;;;;;;5048005;28;19927;-69
2022/01/10 05:46:26;;;;;;;;;;;3.40;96.60;;;;;;5044050;28;19952;-69
2022/01/10 05:48:53;;;;;;;;;;;3.40;96.60;;;;;;5048433;28;19913;-69
2022/01/10 05:51:20;;;;;;;;;;;3.40;96.60;;;;;;5046996;28;19967;-69
2022/01/10 05:53:45;;;;;;;;;;;3.30;96.60;;;;;;5049127;28;19905;-69
2022/01/10 05:56:11;;;;;;;;;;;3.30;96.50;;;;;;5051547;28;19923;-69
2022/01/10 05:58:37;;;;;;;;;;;3.30;96.50;;;;;;5048803;28;19949;-69
2022/01/10 06:01:02;;;;;;;;;;;3.30;96.50;;;;;;5048196;28;20366;-69
2022/01/10 06:03:28;;;;;;;;;;;3.30;96.50;;;;;;5047925;28;19951;-69
2022/01/10 06:05:53;;;;;;;;;;;3.30;96.50;;;;;;5044603;28;19917;-69
2022/01/10 06:08:19;;;;;;;;;;;3.30;96.50;;;;;;5046862;28;19920;-69
2022/01/10 06:10:45;;;;;;;;;;;3.30;96.50;;;;;;5046076;28;19931;-69
2022/01/10 06:13:10;;;;;;;;;;;3.30;96.50;;;;;;5046204;28;20350;-69
2022/01/10 06:15:36;;;;;;;;;;;3.30;96.40;;;;;;5046190;28;19913;-70
2022/01/10 06:18:01;;;;;;;;;;;3.30;96.40;;;;;;5052043;28;19923;-69
2022/01/10 06:20:27;;;;;;;;;;;3.30;96.40;;;;;;5048657;28;19916;-69
2022/01/10 06:22:53;;;;;;;;;;;3.30;96.40;;;;;;5047090;28;20366;-69
2022/01/10 06:25:20;;;;;;;;;;;3.30;96.40;;;;;;5049059;28;19947;-69
2022/01/10 06:27:45;;;;;;;;;;;3.30;96.40;;;;;;5045590;28;20065;-69
2022/01/10 06:30:11;;;;;;;;;;;3.30;96.40;;;;;;5048353;28;20877;-69
2022/01/10 06:32:36;;;;;;;;;;;3.30;96.40;;;;;;5043993;28;19994;-69
2022/01/10 06:35:02;;;;;;;;;;;3.30;96.40;;;;;;5048649;28;19948;-70
2022/01/10 06:37:28;;;;;;;;;;;3.30;96.40;;;;;;5051633;28;19920;-69
2022/01/10 06:39:53;;;;;;;;;;;3.20;96.40;;;;;;5050794;28;20432;-69
2022/01/10 06:42:19;;;;;;;;;;;3.30;96.40;;;;;;5058319;28;19939;-69
2022/01/10 06:44:45;;;;;;;;;;;3.20;96.40;;;;;;5050948;28;19913;-69
2022/01/10 06:47:11;;;;;;;;;;;3.20;96.40;;;;;;5048993;28;20364;-69
2022/01/10 06:49:36;;;;;;;;;;;3.30;96.40;;;;;;5050736;28;19928;-69
2022/01/10 06:52:03;;;;;;;;;;;3.20;96.40;;;;;;5056147;28;19935;-69
2022/01/10 06:54:28;;;;;;;;;;;3.20;96.40;;;;;;5050160;28;19917;-69
2022/01/10 06:56:58;;;;;;;;;;;3.20;96.40;;;;;;5048695;28;19925;-69
2022/01/10 06:59:24;;;;;;;;;;;3.20;96.40;;;;;;5044101;28;19921;-69
2022/01/10 07:01:49;;;;;;;;;;;3.20;96.40;;;;;;5049464;28;19917;-69
2022/01/10 07:04:15;;;;;;;;;;;3.20;96.40;;;;;;5043437;28;20676;-69
2022/01/10 07:06:41;;;;;;;;;;;3.20;96.30;;;;;;5051575;28;20324;-69
2022/01/10 07:09:07;;;;;;;;;;;3.20;96.40;;;;;;5060121;28;19929;-69
2022/01/10 07:11:32;;;;;;;;;;;3.20;96.40;;;;;;5057142;28;20422;-69
2022/01/10 07:13:58;;;;;;;;;;;3.20;96.30;;;;;;5050775;28;20004;-69
2022/01/10 07:16:23;;;;;;;;;;;3.20;96.40;;;;;;5065705;28;19921;-69
2022/01/10 07:18:49;;;;;;;;;;;3.20;96.40;;;;;;5051755;28;19913;-69
2022/01/10 07:21:14;;;;;;;;;;;3.20;96.40;;;;;;5051044;28;19915;-69
2022/01/10 07:23:40;;;;;;;;;;;3.20;96.30;;;;;;5036653;28;19962;-69
2022/01/10 07:26:05;;;;;;;;;;;3.20;96.40;;;;;;5052687;28;19913;-69
2022/01/10 07:28:31;;;;;;;;;;;3.20;96.30;;;;;;5056015;28;19920;-69
2022/01/10 07:30:57;;;;;;;;;;;3.20;96.30;;;;;;5051347;28;19912;-69
2022/01/10 07:33:22;;;;;;;;;;;3.20;96.30;;;;;;5037310;28;19920;-69
2022/01/10 07:35:48;;;;;;;;;;;3.20;96.30;;;;;;5029598;28;20309;-69
2022/01/10 07:38:13;;;;;;;;;;;3.20;96.30;;;;;;5051188;28;19999;-69
2022/01/10 07:40:39;;;;;;;;;;;3.20;96.40;;;;;;5047706;28;19999;-69
2022/01/10 07:43:04;;;;;;;;;;;3.10;96.30;;;;;;5056105;28;19909;-69
2022/01/10 07:45:30;;;;;;;;;;;3.20;96.40;;;;;;5046739;28;19917;-69
2022/01/10 07:47:56;;;;;;;;;;;3.20;96.30;;;;;;5051300;28;19941;-69
2022/01/10 07:50:21;;;;;;;;;;;3.20;96.40;;;;;;5031231;28;19920;-69
2022/01/10 07:52:47;;;;;;;;;;;3.20;96.40;;;;;;5051465;28;20434;-69
2022/01/10 07:55:12;;;;;;;;;;;3.10;96.30;;;;;;5046135;28;19916;-69
2022/01/10 07:57:38;;;;;;;;;;;3.10;96.40;;;;;;5053067;28;19982;-69
2022/01/10 08:00:04;;;;;;;;;;;3.20;96.30;;;;;;5049258;28;19920;-69
2022/01/10 08:02:30;;;;;;;;;;;3.10;96.30;;;;;;5050913;28;20443;-69
2022/01/10 08:04:55;;;;;;;;;;;3.20;96.30;;;;;;5027738;28;19920;-69
2022/01/10 08:07:21;;;;;;;;;;;3.20;96.40;;;;;;5050671;28;20684;-69
2022/01/10 08:09:46;;;;;;;;;;;3.10;96.30;;;;;;5050784;28;20404;-69
2022/01/10 08:12:12;;;;;;;;;;;3.10;96.30;;;;;;5047888;28;20277;-69
2022/01/10 08:14:37;;;;;;;;;;;3.10;96.30;;;;;;5055386;28;20270;-69
2022/01/10 08:17:03;;;;;;;;;;;3.20;96.30;;;;;;5047658;28;19932;-69
2022/01/10 08:19:31;;;;;;;;;;;3.20;96.30;;;;;;5050285;28;19999;-69
2022/01/10 08:21:57;;;;;;;;;;;3.20;96.40;;;;;;5047953;28;19955;-69
2022/01/10 08:24:23;;;;;;;;;;;3.10;96.30;;;;;;5061812;28;24112;-69
2022/01/10 08:26:49;;;;;;;;;;;3.20;96.30;;;;;;5048568;28;19913;-69
2022/01/10 08:29:14;;;;;;;;;;;3.20;96.30;;;;;;5050889;28;19912;-69
2022/01/10 08:31:40;;;;;;;;;;;3.20;96.30;;;;;;5048345;28;19913;-69
2022/01/10 08:34:06;;;;;;;;;;;3.20;96.30;;;;;;5038164;28;20357;-69
2022/01/10 08:36:32;;;;;;;;;;;3.20;96.30;;;;;;5045851;28;19925;-69
2022/01/10 08:38:58;;;;;;;;;;;3.20;96.30;;;;;;5055239;28;20430;-69
2022/01/10 08:41:23;;;;;;;;;;;3.20;96.40;;;;;;5046596;28;20330;-69
2022/01/10 08:43:49;;;;;;;;;;;3.20;96.30;;;;;;5054120;28;19956;-69
2022/01/10 08:46:15;;;;;;;;;;;3.20;96.40;;;;;;5050634;28;19917;-69
2022/01/10 08:48:40;;;;;;;;;;;3.20;96.30;;;;;;5051883;28;19921;-69
2022/01/10 08:51:06;;;;;;;;;;;3.20;96.30;;;;;;5053196;28;19966;-69
2022/01/10 08:53:32;;;;;;;;;;;3.20;96.30;;;;;;5047740;28;19917;-69
2022/01/10 08:55:57;;;;;;;;;;;3.20;96.40;;;;;;5045357;28;19916;-69
2022/01/10 08:58:24;;;;;;;;;;;3.30;96.40;;;;;;5049916;28;19939;-69
2022/01/10 09:00:50;;;;;;;;;;;3.30;96.40;;;;;;5052983;28;19912;-69
2022/01/10 09:03:16;;;;;;;;;;;3.30;96.40;;;;;;5044500;28;20503;-69
2022/01/10 09:05:41;;;;;;;;;;;3.30;96.40;;;;;;5057635;28;19924;-69
2022/01/10 09:08:07;;;;;;;;;;;3.30;96.30;;;;;;5042646;28;19963;-69
2022/01/10 09:10:33;;;;;;;;;;;3.30;96.40;;;;;;5047026;28;19958;-69
2022/01/10 09:12:58;;;;;;;;;;;3.30;96.50;;;;;;5044743;28;19920;-69
2022/01/10 09:15:24;;;;;;;;;;;3.30;96.60;;;;;;5049924;28;20723;-69
2022/01/10 09:17:49;;;;;;;;;;;3.30;96.60;;;;;;5028196;28;19913;-69
2022/01/10 09:20:15;;;;;;;;;;;3.30;96.60;;;;;;5048614;28;19916;-69
2022/01/10 09:22:40;;;;;;;;;;;3.30;96.60;;;;;;5065405;28;19928;-69
2022/01/10 09:25:06;;;;;;;;;;;3.30;96.60;;;;;;5047086;28;19917;-69
2022/01/10 09:27:32;;;;;;;;;;;3.40;96.70;;;;;;5029048;28;19936;-69
2022/01/10 09:29:57;;;;;;;;;;;3.40;96.70;;;;;;5044479;28;19913;-69
2022/01/10 09:32:23;;;;;;;;;;;3.40;96.80;;;;;;5048500;28;19944;-69
2022/01/10 09:34:48;;;;;;;;;;;3.40;96.90;;;;;;5049371;28;19967;-69
2022/01/10 09:37:14;;;;;;;;;;;3.40;96.90;;;;;;5032466;28;19951;-69
2022/01/10 09:39:39;;;;;;;;;;;3.40;97.00;;;;;;5046601;28;20237;-69
2022/01/10 09:42:05;;;;;;;;;;;3.40;97.00;;;;;;5049228;28;19917;-69
2022/01/10 09:44:30;;;;;;;;;;;3.40;97.00;;;;;;5031991;28;19912;-69
2022/01/10 09:46:56;;;;;;;;;;;3.40;97.00;;;;;;5047708;28;19921;-69
2022/01/10 09:49:22;;;;;;;;;;;3.50;97.10;;;;;;5062938;28;19960;-69
2022/01/10 09:51:48;;;;;;;;;;;3.50;97.10;;;;;;5054779;28;20424;-69
2022/01/10 09:54:14;;;;;;;;;;;3.50;97.00;;;;;;5045447;28;19913;-69
2022/01/10 09:56:40;;;;;;;;;;;3.50;97.10;;;;;;5059629;28;20319;-69
2022/01/10 09:59:06;;;;;;;;;;;3.50;97.00;;;;;;5050016;28;19917;-69
2022/01/10 10:01:32;;;;;;;;;;;3.50;97.10;;;;;;5048527;28;19920;-69
2022/01/10 10:04:01;;;;;;;;;;;3.50;97.10;;;;;;5048092;28;20433;-69
2022/01/10 10:06:28;;;;;;;;;;;3.50;97.20;;;;;;5048232;28;19959;-69
2022/01/10 10:08:56;;;;;;;;;;;3.50;97.10;;;;;;5048924;28;19964;-69
2022/01/10 10:11:21;;;;;;;;;;;3.50;97.10;;;;;;5046553;28;20393;-69
2022/01/10 10:13:53;;;;;;;;;;;3.50;97.20;;;;;;5048350;28;19947;-69
2022/01/10 10:16:18;;;;;;;;;;;3.50;97.20;;;;;;5054361;28;20391;-69
2022/01/10 10:18:47;;;;;;;;;;;3.60;97.20;;;;;;5052807;28;19912;-69
2022/01/10 10:21:17;;;;;;;;;;;3.60;97.20;;;;;;5034452;28;20548;-69
2022/01/10 10:23:46;;;;;;;;;;;3.60;97.20;;;;;;5051764;28;19931;-69
2022/01/10 10:26:16;;;;;;;;;;;3.60;97.20;;;;;;5035777;28;20625;-69
2022/01/10 10:28:43;;;;;;;;;;;3.60;97.20;;;;;;5053801;28;19959;-69
2022/01/10 10:31:09;;;;;;;;;;;3.60;97.20;;;;;;5052816;28;20293;-69
2022/01/10 10:33:34;;;;;;;;;;;3.60;97.10;;;;;;5051770;28;19932;-69
2022/01/10 10:36:07;;;;;;;;;;;3.60;97.20;;;;;;5053467;28;19970;-69
2022/01/10 10:38:33;;;;;;;;;;;3.60;97.20;;;;;;5050264;28;19916;-69
2022/01/10 10:40:59;;;;;;;;;;;3.60;97.20;;;;;;5052341;28;19916;-69
2022/01/10 10:43:25;;;;;;;;;;;3.60;97.20;;;;;;5051165;28;20373;-69
2022/01/10 10:45:51;;;;;;;;;;;3.60;97.20;;;;;;5052020;28;19971;-69
2022/01/10 10:48:17;;;;;;;;;;;3.60;97.20;;;;;;5044660;28;19921;-69
2022/01/10 10:50:44;;;;;;;;;;;3.60;97.20;;;;;;5052794;28;20381;-69
2022/01/10 10:53:13;;;;;;;;;;;3.60;97.30;;;;;;5031394;28;19913;-69
2022/01/10 10:55:39;;;;;;;;;;;3.70;97.30;;;;;;5053548;28;19939;-69
2022/01/10 10:58:05;;;;;;;;;;;3.70;97.30;;;;;;5050663;28;20020;-69
2022/01/10 11:00:31;;;;;;;;;;;3.70;97.20;;;;;;5051978;28;19913;-69
2022/01/10 11:02:57;;;;;;;;;;;3.80;97.20;;;;;;5047898;28;19916;-69
2022/01/10 11:05:23;;;;;;;;;;;3.80;97.20;;;;;;5052816;28;19916;-69
2022/01/10 11:07:48;;;;;;;;;;;3.80;97.10;;;;;;5049497;28;20343;-69
2022/01/10 11:10:14;;;;;;;;;;;3.80;97.10;;;;;;5046260;28;19913;-69
2022/01/10 11:12:43;;;;;;;;;;;3.80;97.10;;;;;;5049832;28;19920;-69
2022/01/10 11:15:09;;;;;;;;;;;3.80;97.10;;;;;;5051605;28;20508;-69
2022/01/10 11:17:35;;;;;;;;;;;3.80;97.10;;;;;;5048238;28;19931;-69
2022/01/10 11:20:06;;;;;;;;;;;3.90;97.10;;;;;;5049912;28;19921;-69
2022/01/10 11:22:31;;;;;;;;;;;3.90;97.10;;;;;;5048432;28;19916;-69
2022/01/10 11:24:57;;;;;;;;;;;3.90;97.10;;;;;;5048796;28;19917;-69
2022/01/10 11:27:36;;;;;;;;;;;3.90;97.10;;;;;;5054693;28;20421;-69
2022/01/10 11:30:31;;;;;;;;;;;3.90;97.00;;;;;;5049335;28;19921;-69
2022/01/10 11:33:16;;;;;;;;;;;4.00;97.10;;;;;;5035067;28;19970;-69
2022/01/10 11:35:41;;;;;;;;;;;4.00;97.00;;;;;;5050546;28;20637;-69
2022/01/10 11:38:28;;;;;;;;;;;4.00;97.00;;;;;;5048190;28;19924;-69
2022/01/10 11:40:57;;;;;;;;;;;4.00;97.10;;;;;;5050733;28;19920;-69
2022/01/10 11:43:38;;;;;;;;;;;4.00;97.00;;;;;;5047676;28;19913;-69
2022/01/10 11:46:14;;;;;;;;;;;4.00;97.00;;;;;;5048606;28;20320;-69
2022/01/10 11:48:50;;;;;;;;;;;4.00;97.00;;;;;;5046335;28;20282;-69
2022/01/10 11:51:17;;;;;;;;;;;4.10;97.00;;;;;;5031846;28;20000;-69
2022/01/10 11:53:44;;;;;;;;;;;4.10;97.00;;;;;;5048022;28;20486;-69
2022/01/10 11:56:20;;;;;;;;;;;4.10;97.10;;;;;;5051091;28;19920;-69
2022/01/10 11:59:24;;;;;;;;;;;4.10;97.10;;;;;;5056815;28;19932;-69
2022/01/10 12:01:57;;;;;;;;;;;4.10;97.10;;;;;;4970250;28;20009;-69
2022/01/10 12:04:23;;;;;;;;;;;4.10;97.00;;;;;;4968153;28;19949;-69
2022/01/10 12:06:50;;;;;;;;;;;4.10;97.10;;;;;;4995266;28;19909;-69
2022/01/10 12:09:16;;;;;;;;;;;4.10;97.10;;;;;;5049315;28;19919;-69
2022/01/10 12:11:45;;;;;;;;;;;4.10;97.10;;;;;;5050238;28;19913;-69
2022/01/10 12:14:11;;;;;;;;;;;4.10;97.00;;;;;;5033338;28;19939;-69
2022/01/10 12:16:36;;;;;;;;;;;4.10;97.10;;;;;;5048193;28;19917;-69
2022/01/10 12:19:03;;;;;;;;;;;4.10;97.10;;;;;;5059744;28;19917;-69
2022/01/10 12:21:29;;;;;;;;;;;4.10;97.10;;;;;;5047575;28;19913;-69
2022/01/10 12:23:55;;;;;;;;;;;4.20;97.00;;;;;;5050511;28;20409;-69
2022/01/10 12:26:21;;;;;;;;;;;4.20;97.00;;;;;;5047041;28;19987;-69
2022/01/10 12:28:51;;;;;;;;;;;4.20;97.00;;;;;;5055255;28;19928;-69
2022/01/10 12:31:19;;;;;;;;;;;4.20;97.10;;;;;;5044029;28;19917;-69
2022/01/10 12:33:44;;;;;;;;;;;4.20;97.10;;;;;;5049700;28;19971;-69
2022/01/10 12:36:10;;;;;;;;;;;4.20;97.10;;;;;;5045238;28;20586;-69
2022/01/10 12:38:36;;;;;;;;;;;4.20;97.10;;;;;;5057275;28;19909;-69
2022/01/10 12:41:01;;;;;;;;;;;4.20;97.10;;;;;;5047260;28;20692;-69
2022/01/10 12:43:27;;;;;;;;;;;4.20;97.10;;;;;;5054880;28;19965;-69
2022/01/10 12:45:52;;;;;;;;;;;4.30;97.10;;;;;;5050348;28;19920;-69
2022/01/10 12:48:18;;;;;;;;;;;4.30;97.10;;;;;;5049500;28;20278;-69
2022/01/10 12:50:48;;;;;;;;;;;4.30;97.00;;;;;;5048856;28;19920;-69
2022/01/10 12:53:14;;;;;;;;;;;4.30;97.10;;;;;;5052825;28;20000;-69
2022/01/10 12:55:40;;;;;;;;;;;4.30;97.10;;;;;;5048522;28;19916;-69
2022/01/10 12:58:06;;;;;;;;;;;4.30;97.10;;;;;;5050573;28;19920;-69
2022/01/10 13:00:32;;;;;;;;;;;4.30;97.10;;;;;;5051088;28;19958;-69
2022/01/10 13:03:00;;;;;;;;;;;4.30;97.10;;;;;;5049014;28;19920;-69
2022/01/10 13:05:26;;;;;;;;;;;4.40;97.10;;;;;;5050942;28;19917;-69
2022/01/10 13:07:53;;;;;;;;;;;4.40;97.10;;;;;;5046284;28;19915;-69
2022/01/10 13:10:22;;;;;;;;;;;4.40;97.10;;;;;;5047782;28;19913;-69
2022/01/10 13:13:01;;;;;;;;;;;4.40;97.20;;;;;;5028329;28;19943;-69
2022/01/10 13:15:35;;;;;;;;;;;4.40;97.10;;;;;;5050417;28;19913;-69
2022/01/10 13:18:02;;;;;;;;;;;4.40;97.10;;;;;;5047657;28;19966;-69
2022/01/10 13:20:29;;;;;;;;;;;4.40;97.10;;;;;;5051463;28;19924;-69
2022/01/10 13:22:59;;;;;;;;;;;4.40;97.10;;;;;;5047938;28;19923;-69
2022/01/10 13:25:24;;;;;;;;;;;4.40;97.10;;;;;;5049718;28;20277;-69
2022/01/10 13:27:58;;;;;;;;;;;4.40;97.10;;;;;;5045484;28;19912;-69
2022/01/10 13:30:27;;;;;;;;;;;4.40;97.10;;;;;;5049874;28;19921;-69
2022/01/10 13:32:54;;;;;;;;;;;4.50;97.10;;;;;;5043902;28;19917;-69
2022/01/10 13:35:20;;;;;;;;;;;4.40;97.00;;;;;;5045695;28;19920;-69
2022/01/10 13:37:50;;;;;;;;;;;4.40;97.10;;;;;;5046576;28;19939;-69
2022/01/10 13:40:24;;;;;;;;;;;4.50;97.10;;;;;;5035889;28;19913;-69
2022/01/10 13:43:02;;;;;;;;;;;4.40;97.10;;;;;;5046764;28;19920;-69
2022/01/10 13:45:44;;;;;;;;;;;4.50;97.10;;;;;;5046551;28;19931;-69
2022/01/10 13:48:16;;;;;;;;;;;4.50;97.10;;;;;;5060141;28;19952;-69
2022/01/10 13:50:48;;;;;;;;;;;4.50;97.10;;;;;;5024999;28;19951;-69
2022/01/10 13:53:15;;;;;;;;;;;4.50;97.10;;;;;;5048861;28;19924;-69
2022/01/10 13:55:43;;;;;;;;;;;4.50;97.10;;;;;;5053767;28;20377;-69
2022/01/10 13:58:22;;;;;;;;;;;4.50;97.10;;;;;;5047151;28;20007;-69
2022/01/10 14:00:51;;;;;;;;;;;4.50;97.10;;;;;;5047380;28;20024;-69
2022/01/10 14:03:20;;;;;;;;;;;4.50;97.20;;;;;;5047177;28;20591;-69
2022/01/10 14:05:46;;;;;;;;;;;4.50;97.10;;;;;;5067281;28;20031;-69
2022/01/10 14:08:13;;;;;;;;;;;4.50;97.10;;;;;;5049162;28;19917;-69
2022/01/10 14:10:38;;;;;;;;;;;4.50;97.10;;;;;;5049056;28;19924;-69
2022/01/10 14:13:04;;;;;;;;;;;4.50;97.40;;;;;;5048592;28;19921;-69
2022/01/10 14:15:29;;;;;;;;;;;4.50;97.10;;;;;;5046879;28;20373;-69
2022/01/10 14:17:55;;;;;;;;;;;4.50;97.10;;;;;;5048154;28;19931;-69
2022/01/10 14:20:22;;;;;;;;;;;4.50;97.40;;;;;;5025989;28;19947;-69
2022/01/10 14:22:50;;;;;;;;;;;4.50;97.10;;;;;;5046492;28;19917;-69
2022/01/10 14:25:16;;;;;;;;;;;4.50;97.10;;;;;;5046495;28;19978;-69
2022/01/10 14:27:43;;;;;;;;;;;4.50;97.10;;;;;;5051377;28;19917;-69
2022/01/10 14:30:08;;;;;;;;;;;4.50;97.10;;;;;;5027949;28;19947;-69
2022/01/10 14:32:34;;;;;;;;;;;4.50;97.10;;;;;;5049501;28;19917;-69
2022/01/10 14:34:59;;;;;;;;;;;4.50;97.10;;;;;;5028986;28;19948;-69
2022/01/10 14:37:25;;;;;;;;;;;4.50;97.10;;;;;;5048542;28;20015;-69